createdAt,value
2023-01-19T00:00:00.476Z,86
2023-01-19T00:04:00.485Z,86
2023-01-19T00:08:00.904Z,86
2023-01-19T00:12:00.476Z,86
2023-01-19T00:16:00.507Z,86
2023-01-19T00:20:00.508Z,86
2023-01-19T00:24:00.489Z,86
2023-01-19T00:28:01.694Z,86
2023-01-19T00:32:00.480Z,86
2023-01-19T00:36:00.475Z,86
2023-01-19T00:40:00.475Z,86
2023-01-19T00:44:00.494Z,86
2023-01-19T00:48:00.516Z,86
2023-01-19T00:52:00.488Z,86
2023-01-19T00:56:00.487Z,86
2023-01-19T01:00:00.466Z,86
2023-01-19T01:04:00.480Z,86
2023-01-19T01:08:00.472Z,86
2023-01-19T01:12:00.476Z,86
2023-01-19T01:16:00.499Z,85
2023-01-19T01:20:00.485Z,85
2023-01-19T01:24:00.735Z,85
2023-01-19T01:28:00.543Z,85
2023-01-19T01:32:00.469Z,85
2023-01-19T01:36:00.482Z,85
2023-01-19T01:40:00.506Z,85
2023-01-19T01:44:00.498Z,85
2023-01-19T01:48:00.486Z,85
2023-01-19T01:52:00.505Z,85
2023-01-19T01:56:00.725Z,85
2023-01-19T02:00:00.495Z,85
2023-01-19T02:04:00.478Z,85
2023-01-19T02:08:00.494Z,85
2023-01-19T02:12:01.495Z,85
2023-01-19T02:16:00.478Z,85
2023-01-19T02:20:00.479Z,85
2023-01-19T02:24:00.499Z,85
2023-01-19T02:28:00.497Z,85
2023-01-19T02:32:00.496Z,85
2023-01-19T02:36:00.488Z,85
2023-01-19T02:40:00.495Z,86
2023-01-19T02:44:00.496Z,86
2023-01-19T02:48:00.468Z,86
2023-01-19T02:52:00.486Z,86
2023-01-19T02:56:00.483Z,86
2023-01-19T03:00:00.491Z,85
2023-01-19T03:04:00.481Z,85
2023-01-19T03:08:00.487Z,85
2023-01-19T03:12:00.524Z,85
2023-01-19T03:16:00.490Z,85
2023-01-19T03:20:00.474Z,85
2023-01-19T03:24:00.448Z,85
2023-01-19T03:28:00.469Z,85
2023-01-19T03:32:00.458Z,85
2023-01-19T03:36:00.471Z,85
2023-01-19T03:40:00.480Z,85
2023-01-19T03:44:00.464Z,85
2023-01-19T03:48:00.486Z,85
2023-01-19T03:52:00.482Z,85
2023-01-19T03:56:00.492Z,85
2023-01-19T04:00:00.485Z,85
2023-01-19T04:04:00.484Z,85
2023-01-19T04:08:00.493Z,85
2023-01-19T04:12:00.497Z,85
2023-01-19T04:16:00.498Z,85
2023-01-19T04:20:00.519Z,85
2023-01-19T04:24:00.459Z,85
2023-01-19T04:28:00.501Z,85
2023-01-19T04:32:00.475Z,85
2023-01-19T04:36:00.531Z,85
2023-01-19T04:40:00.485Z,85
2023-01-19T04:44:00.505Z,85
2023-01-19T04:48:00.474Z,85
2023-01-19T04:52:00.478Z,85
2023-01-19T04:56:00.493Z,85
2023-01-19T05:00:00.474Z,85
2023-01-19T05:04:00.484Z,85
2023-01-19T05:08:00.480Z,85
2023-01-19T05:12:00.514Z,85
2023-01-19T05:16:00.529Z,85
2023-01-19T05:20:00.496Z,84
2023-01-19T05:24:00.486Z,84
2023-01-19T05:28:00.507Z,85
2023-01-19T05:32:00.590Z,85
2023-01-19T05:36:00.490Z,84
2023-01-19T05:40:00.481Z,84
2023-01-19T05:44:00.480Z,84
2023-01-19T05:48:00.509Z,84
2023-01-19T05:52:00.725Z,84
2023-01-19T05:56:00.488Z,84
2023-01-19T06:00:00.495Z,84
2023-01-19T06:04:00.503Z,84
2023-01-19T06:08:00.490Z,84
2023-01-19T06:12:00.495Z,84
2023-01-19T06:16:00.598Z,85
2023-01-19T06:20:00.484Z,84
2023-01-19T06:24:00.497Z,84
2023-01-19T06:28:00.482Z,84
2023-01-19T06:32:00.674Z,84
2023-01-19T06:36:00.490Z,84
2023-01-19T06:40:00.528Z,84
2023-01-19T06:44:00.483Z,84
2023-01-19T06:48:00.503Z,84
2023-01-19T06:52:00.503Z,84
2023-01-19T06:56:00.474Z,84
2023-01-19T07:00:00.501Z,84
2023-01-19T07:04:00.497Z,84
2023-01-19T07:08:00.486Z,84
2023-01-19T07:12:00.473Z,84
2023-01-19T07:16:00.506Z,84
2023-01-19T07:20:00.492Z,84
2023-01-19T07:24:00.491Z,84
2023-01-19T07:28:00.502Z,84
2023-01-19T07:32:00.496Z,84
2023-01-19T07:36:00.521Z,84
2023-01-19T07:40:00.524Z,84
2023-01-19T07:44:00.496Z,84
2023-01-19T07:48:00.489Z,84
2023-01-19T07:52:00.502Z,84
2023-01-19T07:56:00.494Z,84
2023-01-19T08:00:00.499Z,84
2023-01-19T08:04:00.507Z,84
2023-01-19T08:08:00.478Z,84
2023-01-19T08:12:00.494Z,85
2023-01-19T08:16:00.517Z,85
2023-01-19T08:20:00.478Z,85
2023-01-19T08:24:00.552Z,85
2023-01-19T08:28:00.508Z,85
2023-01-19T08:32:00.616Z,85
2023-01-19T08:36:00.469Z,85
2023-01-19T08:40:00.502Z,85
2023-01-19T08:44:00.467Z,85
2023-01-19T08:48:00.501Z,85
2023-01-19T08:52:00.479Z,86
2023-01-19T08:56:00.503Z,86
2023-01-19T09:00:00.466Z,86
2023-01-19T09:04:00.472Z,86
2023-01-19T09:08:00.669Z,86
2023-01-19T09:12:00.464Z,86
2023-01-19T09:16:00.536Z,86
2023-01-19T09:20:00.473Z,86
2023-01-19T09:24:00.489Z,86
2023-01-19T09:28:00.963Z,86
2023-01-19T09:32:00.511Z,86
2023-01-19T09:36:00.493Z,86
2023-01-19T09:40:00.542Z,86
2023-01-19T09:44:00.473Z,86
2023-01-19T09:48:00.941Z,86
2023-01-19T09:52:00.488Z,86
2023-01-19T09:56:00.491Z,86
2023-01-19T10:00:00.517Z,86
2023-01-19T10:04:00.474Z,86
2023-01-19T10:08:00.884Z,86
2023-01-19T10:12:00.487Z,87
2023-01-19T10:16:00.570Z,87
2023-01-19T10:20:00.481Z,87
2023-01-19T10:24:00.509Z,87
2023-01-19T10:28:00.485Z,87
2023-01-19T10:32:00.601Z,87
2023-01-19T10:36:00.507Z,87
2023-01-19T10:40:00.517Z,87
2023-01-19T10:44:00.514Z,87
2023-01-19T10:48:00.474Z,87
2023-01-19T10:52:00.493Z,87
2023-01-19T10:56:00.487Z,87
2023-01-19T11:00:00.472Z,87
2023-01-19T11:04:00.623Z,87
2023-01-19T11:08:00.477Z,87
2023-01-19T11:12:00.489Z,87
2023-01-19T11:16:00.549Z,87
2023-01-19T11:20:00.485Z,87
2023-01-19T11:24:00.463Z,87
2023-01-19T11:28:00.494Z,87
2023-01-19T11:32:00.495Z,87
2023-01-19T11:36:00.502Z,87
2023-01-19T11:40:00.555Z,87
2023-01-19T11:44:00.487Z,86
2023-01-19T11:48:00.759Z,86
2023-01-19T11:52:00.498Z,86
2023-01-19T11:56:00.466Z,85
2023-01-19T12:00:00.518Z,85
2023-01-19T12:04:00.477Z,84
2023-01-19T12:08:00.781Z,83
2023-01-19T12:12:00.463Z,83
2023-01-19T12:16:00.499Z,82
2023-01-19T12:20:00.496Z,82
2023-01-19T12:24:00.555Z,82
2023-01-19T12:28:00.532Z,82
2023-01-19T12:32:00.668Z,82
2023-01-19T12:36:00.486Z,82
2023-01-19T12:40:00.494Z,82
2023-01-19T12:44:00.507Z,80
2023-01-19T12:48:00.486Z,81
2023-01-19T12:52:00.479Z,80
2023-01-19T12:56:00.491Z,80
2023-01-19T13:00:00.469Z,80
2023-01-19T13:04:00.534Z,79
2023-01-19T13:08:00.488Z,79
2023-01-19T13:12:01.050Z,79
2023-01-19T13:16:00.543Z,79
2023-01-19T13:20:00.470Z,79
2023-01-19T13:24:00.496Z,79
2023-01-19T13:28:00.507Z,79
2023-01-19T13:32:00.471Z,79
2023-01-19T13:36:00.495Z,79
2023-01-19T13:40:00.866Z,79
2023-01-19T13:44:00.520Z,79
2023-01-19T13:48:00.497Z,79
2023-01-19T13:52:00.490Z,79
2023-01-19T13:56:00.468Z,79
2023-01-19T14:00:00.489Z,79
2023-01-19T14:04:00.473Z,79
2023-01-19T14:08:00.568Z,79
2023-01-19T14:12:00.524Z,79
2023-01-19T14:16:00.547Z,79
2023-01-19T14:20:00.565Z,79
2023-01-19T14:24:00.503Z,79
2023-01-19T14:28:00.489Z,79
2023-01-19T14:32:00.477Z,79
2023-01-19T14:36:00.499Z,79
2023-01-19T14:40:00.511Z,79
2023-01-19T14:44:00.465Z,79
2023-01-19T14:48:00.518Z,79
2023-01-19T14:52:00.477Z,80
2023-01-19T14:56:00.502Z,80
2023-01-19T15:00:00.488Z,80
2023-01-19T15:04:00.499Z,79
2023-01-19T15:08:00.473Z,79
2023-01-19T15:12:00.478Z,79
2023-01-19T15:16:00.559Z,80
2023-01-19T15:20:00.524Z,80
2023-01-19T15:24:00.515Z,80
2023-01-19T15:28:00.506Z,80
2023-01-19T15:32:00.471Z,80
2023-01-19T15:36:00.483Z,80
2023-01-19T15:40:00.492Z,80
2023-01-19T15:44:00.480Z,80
2023-01-19T15:48:00.475Z,80
2023-01-19T15:52:00.492Z,80
2023-01-19T15:56:00.497Z,80
2023-01-19T16:00:00.501Z,80
2023-01-19T16:04:00.479Z,80
2023-01-19T16:08:01.962Z,80
2023-01-19T16:12:00.504Z,80
2023-01-19T16:16:00.496Z,80
2023-01-19T16:20:00.484Z,81
2023-01-19T16:24:00.508Z,81
2023-01-19T16:28:00.488Z,81
2023-01-19T16:32:00.554Z,82
2023-01-19T16:36:00.524Z,82
2023-01-19T16:40:00.498Z,82
2023-01-19T16:44:00.481Z,82
2023-01-19T16:48:00.500Z,81
2023-01-19T16:52:00.497Z,81
2023-01-19T16:56:00.507Z,81
2023-01-19T17:00:00.513Z,81
2023-01-19T17:04:00.499Z,81
2023-01-19T17:08:00.500Z,82
2023-01-19T17:12:00.496Z,82
2023-01-19T17:16:00.474Z,82
2023-01-19T17:20:00.531Z,82
2023-01-19T17:24:00.514Z,83
2023-01-19T17:28:00.490Z,83
2023-01-19T17:32:00.471Z,83
2023-01-19T17:36:00.498Z,83
2023-01-19T17:40:00.493Z,83
2023-01-19T17:44:00.522Z,83
2023-01-19T17:48:00.492Z,83
2023-01-19T17:52:00.482Z,83
2023-01-19T17:56:00.473Z,83
2023-01-19T18:00:00.463Z,83
2023-01-19T18:04:00.483Z,83
2023-01-19T18:08:00.468Z,83
2023-01-19T18:12:00.510Z,83
2023-01-19T18:16:00.482Z,83
2023-01-19T18:20:00.471Z,83
2023-01-19T18:24:00.474Z,83
2023-01-19T18:28:00.536Z,83
2023-01-19T18:32:00.494Z,83
2023-01-19T18:36:00.507Z,83
2023-01-19T18:40:00.504Z,83
2023-01-19T18:44:00.493Z,83
2023-01-19T18:48:00.470Z,83
2023-01-19T18:52:00.484Z,83
2023-01-19T18:56:00.482Z,83
2023-01-19T19:00:00.527Z,83
2023-01-19T19:04:00.483Z,83
2023-01-19T19:08:00.516Z,83
2023-01-19T19:12:00.496Z,84
2023-01-19T19:16:00.536Z,84
2023-01-19T19:20:00.501Z,84
2023-01-19T19:24:00.525Z,84
2023-01-19T19:28:00.531Z,84
2023-01-19T19:32:00.481Z,84
2023-01-19T19:36:00.459Z,84
2023-01-19T19:40:00.484Z,84
2023-01-19T19:44:00.715Z,84
2023-01-19T19:48:00.523Z,85
2023-01-19T19:52:00.519Z,85
2023-01-19T19:56:00.462Z,85
2023-01-19T20:00:00.478Z,85
2023-01-19T20:04:00.489Z,85
2023-01-19T20:08:00.501Z,85
2023-01-19T20:12:00.507Z,85
2023-01-19T20:16:00.515Z,85
2023-01-19T20:20:00.492Z,85
2023-01-19T20:24:00.515Z,85
2023-01-19T20:28:00.496Z,85
2023-01-19T20:32:00.487Z,85
2023-01-19T20:36:00.490Z,85
2023-01-19T20:40:00.465Z,85
2023-01-19T20:44:00.512Z,85
2023-01-19T20:48:00.495Z,85
2023-01-19T20:52:00.496Z,85
2023-01-19T20:56:00.472Z,85
2023-01-19T21:00:00.493Z,85
2023-01-19T21:04:00.488Z,85
2023-01-19T21:08:00.506Z,85
2023-01-19T21:12:00.482Z,85
2023-01-19T21:16:00.544Z,85
2023-01-19T21:20:00.484Z,85
2023-01-19T21:24:00.571Z,85
2023-01-19T21:28:00.481Z,85
2023-01-19T21:32:00.569Z,85
2023-01-19T21:36:00.503Z,85
2023-01-19T21:40:00.477Z,85
2023-01-19T21:44:00.491Z,85
2023-01-19T21:48:00.501Z,86
2023-01-19T21:52:00.492Z,86
2023-01-19T21:56:00.526Z,86
2023-01-19T22:00:00.470Z,86
2023-01-19T22:04:00.494Z,86
2023-01-19T22:08:00.485Z,86
2023-01-19T22:12:00.469Z,86
2023-01-19T22:16:00.524Z,86
2023-01-19T22:20:00.482Z,86
2023-01-19T22:24:00.523Z,86
2023-01-19T22:28:00.485Z,86
2023-01-19T22:32:00.462Z,86
2023-01-19T22:36:00.471Z,86
2023-01-19T22:40:00.478Z,86
2023-01-19T22:44:00.502Z,86
2023-01-19T22:48:00.484Z,86
2023-01-19T22:52:00.488Z,86
2023-01-19T22:56:00.489Z,86
2023-01-19T23:00:00.504Z,86
2023-01-19T23:04:00.506Z,86
2023-01-19T23:08:00.498Z,86
2023-01-19T23:12:00.508Z,86
2023-01-19T23:16:00.548Z,86
2023-01-19T23:20:00.512Z,86
2023-01-19T23:24:00.487Z,86
2023-01-19T23:28:00.504Z,86
2023-01-19T23:32:00.487Z,86
2023-01-19T23:36:00.512Z,86
2023-01-19T23:40:00.488Z,86
2023-01-19T23:44:00.507Z,86
2023-01-19T23:48:00.465Z,86
2023-01-19T23:52:00.471Z,86
2023-01-19T23:56:00.483Z,86
